»·PEaware :: N915TB KSAN-KPSP

N915TB :: KSAN-KPSP

FLIGHT INFORMATION

Flight Status: Arrived
Operator: Privately registered:
United States
More flights under this callsign
Pilot: Jake M. (20491)
Aircraft: SOCATA TBM-900
(TBM9)
More flights by this aircraft type
Origin: KSAN San Diego Intl-Lindbergh
United States
Destination: KPSP Palm Springs Intl
United States
More flights between these airports :: More routes between these airports
Route: BRDR7 JLI V208 TRM
File this flight plan on PilotEdge
Remarks:
Altitude:
(Current/Filed)
11,000ft
Speed:
(Current/Filed)
270kts
Departed: 14-Jan-20 05:47 PM
Arrived: 14-Jan-20 06:17 PM
Distance/Time
Traveled:
74nm/0:30
Distance/Time
To Go:
Arrived

Flight Plot

Page will automatically refresh every two minutes.

Flight plan parsing failed; only flown route is shown


Map Options




Map Legend


Flown Route
Filed Route
Departure Airport
Arrival Airport
Navaid (VOR, NDB)
Fix

Horizontal Profiles

Position Reports

Time Latitude Longitude Heading Altitude Ground
Speed
14-Jan-20 17:16 32.732586 -117.177331 194 20ft 0kts
14-Jan-20 17:17 32.732586 -117.177331 194 20ft 0kts
14-Jan-20 17:18 32.732586 -117.177331 194 20ft 0kts
14-Jan-20 17:19 32.732586 -117.177331 194 20ft 0kts
14-Jan-20 17:20 32.732586 -117.177331 194 20ft 0kts
14-Jan-20 17:21 32.732586 -117.177331 194 20ft 0kts
14-Jan-20 17:22 32.732586 -117.177331 194 20ft 0kts
14-Jan-20 17:23 32.732586 -117.177331 194 20ft 0kts
14-Jan-20 17:24 32.732586 -117.177331 194 20ft 0kts
14-Jan-20 17:25 32.732586 -117.177331 194 20ft 0kts
14-Jan-20 17:26 32.732586 -117.177331 194 20ft 0kts
14-Jan-20 17:27 32.732586 -117.177331 194 20ft 0kts
14-Jan-20 17:28 32.732586 -117.177331 194 20ft 0kts
14-Jan-20 17:29 32.732586 -117.177331 194 20ft 0kts
14-Jan-20 17:30 32.732586 -117.177331 194 20ft 0kts
14-Jan-20 17:31 32.732586 -117.177331 194 20ft 0kts
14-Jan-20 17:32 32.732586 -117.177331 194 20ft 0kts
14-Jan-20 17:33 32.732586 -117.177331 193 20ft 0kts
14-Jan-20 17:34 32.732586 -117.177331 193 20ft 0kts
14-Jan-20 17:35 32.732586 -117.177331 193 20ft 0kts
14-Jan-20 17:36 32.732586 -117.177331 193 20ft 0kts
14-Jan-20 17:37 32.732586 -117.177331 193 20ft 0kts
14-Jan-20 17:38 32.732586 -117.177331 193 20ft 0kts
14-Jan-20 17:39 32.732586 -117.177331 193 20ft 0kts
14-Jan-20 17:40 32.732586 -117.177331 193 20ft 0kts
14-Jan-20 17:41 32.732586 -117.177331 193 20ft 0kts
14-Jan-20 17:42 32.732586 -117.177331 193 20ft 0kts
14-Jan-20 17:43 32.731442 -117.176503 122 20ft 7kts
14-Jan-20 17:44 32.730873 -117.175395 143 20ft 0kts
14-Jan-20 17:45 32.730772 -117.175332 154 20ft 6kts
14-Jan-20 17:46 32.734245 -117.193783 290 434ft 112kts
14-Jan-20 17:47 32.745619 -117.232574 290 2035ft 127kts
14-Jan-20 17:48 32.757143 -117.271518 290 3932ft 131kts
14-Jan-20 17:49 32.757459 -117.312106 206 5863ft 148kts
14-Jan-20 17:50 32.722872 -117.284596 135 7721ft 170kts
14-Jan-20 17:51 32.689226 -117.243508 135 9557ft 178kts
14-Jan-20 17:52 32.651099 -117.197089 136 10852ft 210kts
14-Jan-20 17:53 32.661152 -117.133801 41 11021ft 250kts
14-Jan-20 17:54 32.713120 -117.073991 40 11002ft 265kts
14-Jan-20 17:55 32.767280 -117.012470 40 10999ft 270kts
14-Jan-20 17:56 32.821627 -116.950676 40 10999ft 271kts
14-Jan-20 17:57 32.876341 -116.888354 40 10999ft 271kts
14-Jan-20 17:58 32.930857 -116.826142 40 11000ft 272kts
14-Jan-20 18:00 32.985490 -116.763679 40 11027ft 272kts
14-Jan-20 18:01 33.040227 -116.701016 40 11028ft 272kts
14-Jan-20 18:02 33.095181 -116.637958 39 11027ft 273kts
14-Jan-20 18:03 33.151557 -116.576250 32 11029ft 271kts
14-Jan-20 18:04 33.212678 -116.523265 31 11029ft 269kts
14-Jan-20 18:05 33.273561 -116.470339 31 11029ft 270kts
14-Jan-20 18:06 33.334546 -116.417228 31 11030ft 271kts
14-Jan-20 18:07 33.395844 -116.363728 31 11030ft 271kts
14-Jan-20 18:08 33.456960 -116.310296 32 11022ft 272kts
14-Jan-20 18:09 33.518357 -116.256539 32 10987ft 269kts
14-Jan-20 18:10 33.578378 -116.203904 32 10747ft 272kts
14-Jan-20 18:11 33.644840 -116.190555 306 9200ft 267kts
14-Jan-20 18:12 33.682648 -116.266184 288 7546ft 258kts
14-Jan-20 18:13 33.706036 -116.345171 289 5323ft 244kts
14-Jan-20 18:14 33.732565 -116.418114 320 3083ft 239kts
14-Jan-20 18:15 33.782398 -116.464197 323 1448ft 202kts
14-Jan-20 18:16 33.814536 -116.494263 326 595ft 104kts
14-Jan-20 18:17 33.828686 -116.507342 285 422ft 11kts
14-Jan-20 18:18 33.828656 -116.508876 262 425ft 10kts
14-Jan-20 18:19 33.828213 -116.509883 171 427ft 0kts
14-Jan-20 18:19 33.828213 -116.509883 171 427ft 0kts

Navigation Log

Ident Type
Flight plan parsing failed, navigation log unavailable